Time;durP1;ratioP1;P1;durP2;ratioP2;P2;SDS_P1;SDS_P2;PMS_P1;PMS_P2;Temp;Humidity;BMP_temperature;BMP_pressure;BME280_temperature;BME280_humidity;BME280_pressure;Samples;Min_cycle;Max_cycle;Signal;HPM_P1;HPM_P2
2023/02/16 00:00:40;;;;;;;;;;;;;;;10.92;100.00;99769.03;5025384;28;19932;-41
2023/02/16 00:03:09;;;;;;;;;;;;;;;10.51;100.00;99775.03;4979937;28;19918;-41
2023/02/16 00:05:34;;;;;;;;;;;;;;;10.96;100.00;99764.69;4979431;28;20508;-41
2023/02/16 00:07:59;;;;;;;;;;;;;;;11.40;100.00;99757.69;4978848;28;19921;-41
2023/02/16 00:10:25;;;;;;;;;;;;;;;11.21;100.00;99746.94;4980145;28;19953;-41
2023/02/16 00:15:35;;;;;;;;;;;;;;;11.27;100.00;99754.56;5011481;28;19929;-41
2023/02/16 00:18:01;;;;;;;;;;;;;;;11.51;100.00;99737.63;4978795;28;21131;-41
2023/02/16 00:20:29;;;;;;;;;;;;;;;11.23;100.00;99750.34;4980005;28;19925;-41
2023/02/16 00:22:54;;;;;;;;;;;;;;;11.48;100.00;99746.31;5018224;28;19924;-41
2023/02/16 00:25:19;;;;;;;;;;;;;;;11.10;100.00;99734.28;4980197;28;19921;-41
2023/02/16 00:27:44;;;;;;;;;;;;;;;10.72;100.00;99746.28;4978202;28;19952;-41
2023/02/16 00:30:17;;;;;;;;;;;;;;;10.86;100.00;99743.41;5018803;28;19918;-41
2023/02/16 00:32:42;;;;;;;;;;;;;;;10.86;100.00;99740.84;4980180;28;20744;-41
2023/02/16 00:35:14;;;;;;;;;;;;;;;10.59;100.00;99747.41;4980015;28;19971;-41
2023/02/16 00:37:39;;;;;;;;;;;;;;;10.59;100.00;99739.69;4980278;28;20388;-41
2023/02/16 00:40:05;;;;;;;;;;;;;;;10.72;100.00;99742.84;4979870;28;19933;-41
2023/02/16 00:42:30;;;;;;;;;;;;;;;10.49;100.00;99735.59;4979832;28;20546;-41
2023/02/16 00:44:55;;;;;;;;;;;;;;;10.39;100.00;99740.91;5015408;28;19961;-41
2023/02/16 00:47:21;;;;;;;;;;;;;;;10.71;100.00;99739.41;5018592;28;19921;-41
2023/02/16 00:49:47;;;;;;;;;;;;;;;10.94;100.00;99727.78;5012389;28;19918;-41
2023/02/16 00:52:28;;;;;;;;;;;;;;;10.92;100.00;99727.81;4979363;28;20011;-41
2023/02/16 00:54:53;;;;;;;;;;;;;;;11.27;100.00;99727.03;4985312;28;20173;-41
2023/02/16 00:57:18;;;;;;;;;;;;;;;10.70;100.00;99724.84;4979773;28;20087;-41
2023/02/16 00:59:44;;;;;;;;;;;;;;;10.75;100.00;99733.34;5018699;28;19921;-41
2023/02/16 01:02:09;;;;;;;;;;;;;;;11.21;100.00;99734.91;4979407;28;19924;-41
2023/02/16 01:04:34;;;;;;;;;;;;;;;11.14;100.00;99715.31;4981368;28;19918;-41
2023/02/16 01:12:31;;;;;;;;;;;;;;;10.94;100.00;99722.63;4987377;28;19953;-41
2023/02/16 01:14:57;;;;;;;;;;;;;;;10.73;100.00;99724.78;5019351;28;19964;-41
2023/02/16 01:17:22;;;;;;;;;;;;;;;11.17;100.00;99715.22;4978516;28;19957;-41
2023/02/16 01:19:48;;;;;;;;;;;;;;;10.92;100.00;99711.50;4981100;28;19992;-41
2023/02/16 01:22:13;;;;;;;;;;;;;;;11.16;100.00;99708.38;4979948;28;19932;-41
2023/02/16 01:24:38;;;;;;;;;;;;;;;11.08;100.00;99699.97;4979264;28;19928;-41
2023/02/16 01:27:03;;;;;;;;;;;;;;;11.21;100.00;99696.22;4978775;28;19922;-41
2023/02/16 01:29:29;;;;;;;;;;;;;;;10.94;100.00;99704.59;4994382;28;20715;-41
2023/02/16 01:31:54;;;;;;;;;;;;;;;10.16;100.00;99712.16;4979600;28;19921;-41
2023/02/16 01:34:19;;;;;;;;;;;;;;;10.15;100.00;99741.34;4981808;28;20004;-41
2023/02/16 01:36:45;;;;;;;;;;;;;;;9.89;100.00;99734.94;4982847;28;19924;-41
2023/02/16 01:39:12;;;;;;;;;;;;;;;9.72;100.00;99754.97;4983571;28;19941;-41
2023/02/16 01:41:55;;;;;;;;;;;;;;;10.14;100.00;99749.94;4983174;28;19972;-41
2023/02/16 01:44:24;;;;;;;;;;;;;;;10.19;100.00;99728.38;4982380;28;19921;-41
2023/02/16 01:46:51;;;;;;;;;;;;;;;10.20;100.00;99726.69;5021358;28;19929;-41
2023/02/16 01:49:17;;;;;;;;;;;;;;;9.89;100.00;99722.06;5023297;28;19922;-41
2023/02/16 01:51:45;;;;;;;;;;;;;;;10.18;100.00;99731.00;4983130;28;20641;-41
2023/02/16 01:54:28;;;;;;;;;;;;;;;10.02;100.00;99718.41;4982798;28;19938;-41
2023/02/16 01:57:12;;;;;;;;;;;;;;;8.94;100.00;99736.41;4982449;28;19960;-41
2023/02/16 02:00:02;;;;;;;;;;;;;;;9.43;100.00;99725.41;4982455;28;19921;-41
2023/02/16 02:02:31;;;;;;;;;;;;;;;9.63;100.00;99718.22;4985699;28;19956;-41
2023/02/16 02:07:55;;;;;;;;;;;;;;;10.14;100.00;99716.50;5012105;28;19964;-41
2023/02/16 02:10:23;;;;;;;;;;;;;;;9.31;100.00;99707.63;5015494;28;19967;-41
2023/02/16 02:12:52;;;;;;;;;;;;;;;9.98;100.00;99709.03;4981710;28;19922;-41
2023/02/16 02:15:19;;;;;;;;;;;;;;;10.17;100.00;99690.69;5016001;28;19928;-41
2023/02/16 02:17:44;;;;;;;;;;;;;;;10.45;100.00;99680.75;4982193;28;20023;-41
2023/02/16 02:20:19;;;;;;;;;;;;;;;10.43;100.00;99685.91;4982504;28;20403;-41
2023/02/16 02:25:55;;;;;;;;;;;;;;;10.09;100.00;99692.56;4981834;28;19932;-41
2023/02/16 02:28:20;;;;;;;;;;;;;;;9.52;100.00;99680.72;5016719;28;20363;-41
2023/02/16 02:30:50;;;;;;;;;;;;;;;9.77;100.00;99683.72;4981621;28;19980;-41
2023/02/16 02:33:18;;;;;;;;;;;;;;;9.95;100.00;99690.25;5027578;28;20513;-41
2023/02/16 02:35:46;;;;;;;;;;;;;;;9.72;100.00;99676.06;4981844;28;19922;-41
2023/02/16 02:38:14;;;;;;;;;;;;;;;10.16;100.00;99676.13;4981942;28;19922;-41
2023/02/16 02:40:45;;;;;;;;;;;;;;;10.05;100.00;99669.44;4981446;28;19976;-41
2023/02/16 02:43:22;;;;;;;;;;;;;;;10.74;100.00;99659.50;4981991;28;20776;-41
2023/02/16 02:45:54;;;;;;;;;;;;;;;10.30;100.00;99655.28;5016967;28;19921;-41
2023/02/16 02:48:19;;;;;;;;;;;;;;;9.38;100.00;99676.66;4981829;28;20040;-41
2023/02/16 02:51:39;;;;;;;;;;;;;;;9.24;100.00;99701.72;4982036;28;20457;-41
2023/02/16 02:53:44;;;;;;;;;;;;;;;9.15;100.00;99705.28;4982243;28;19921;-41
2023/02/16 03:01:40;;;;;;;;;;;;;;;9.37;100.00;99690.38;4981331;28;20430;-41
2023/02/16 03:04:05;;;;;;;;;;;;;;;9.16;100.00;99706.97;4981555;28;19949;-41
2023/02/16 03:06:32;;;;;;;;;;;;;;;9.40;100.00;99694.63;5019295;28;20359;-41
2023/02/16 03:09:00;;;;;;;;;;;;;;;9.44;100.00;99693.69;4979346;28;19922;-41
2023/02/16 03:14:13;;;;;;;;;;;;;;;9.35;100.00;99680.97;5008891;28;20066;-41
2023/02/16 03:30:40;;;;;;;;;;;;;;;8.84;100.00;99688.59;5012064;28;19933;-41
2023/02/16 03:33:05;;;;;;;;;;;;;;;8.94;100.00;99691.03;5018438;28;19918;-41
2023/02/16 03:35:31;;;;;;;;;;;;;;;8.98;100.00;99689.25;4996421;28;19921;-41
2023/02/16 03:37:56;;;;;;;;;;;;;;;8.84;100.00;99696.31;4980561;28;19925;-41
2023/02/16 03:40:27;;;;;;;;;;;;;;;9.26;100.00;99688.84;5013508;28;20008;-41
2023/02/16 03:42:54;;;;;;;;;;;;;;;9.57;100.00;99671.19;5018483;28;19928;-41
2023/02/16 03:45:19;;;;;;;;;;;;;;;9.33;100.00;99668.16;5001958;28;19918;-41
2023/02/16 03:47:45;;;;;;;;;;;;;;;9.70;100.00;99662.41;4981356;28;19924;-41
2023/02/16 03:50:10;;;;;;;;;;;;;;;9.53;100.00;99664.41;4980689;28;20036;-41
2023/02/16 03:52:35;;;;;;;;;;;;;;;9.11;100.00;99646.25;5017478;28;20021;-41
2023/02/16 03:55:00;;;;;;;;;;;;;;;9.38;100.00;99661.22;4994899;28;19928;-41
2023/02/16 03:57:26;;;;;;;;;;;;;;;9.26;100.00;99663.13;4984872;28;20028;-41
2023/02/16 03:59:54;;;;;;;;;;;;;;;9.60;100.00;99661.72;4984890;28;20008;-41
2023/02/16 04:02:19;;;;;;;;;;;;;;;9.49;100.00;99663.63;4980101;28;19926;-41
2023/02/16 04:04:44;;;;;;;;;;;;;;;9.24;100.00;99659.72;4980362;28;19940;-41
2023/02/16 04:07:10;;;;;;;;;;;;;;;9.26;100.00;99655.41;4976277;28;20111;-41
2023/02/16 04:09:35;;;;;;;;;;;;;;;9.21;100.00;99647.78;4979882;28;19926;-41
2023/02/16 04:14:44;;;;;;;;;;;;;;;9.34;100.00;99643.31;4980512;28;19948;-41
2023/02/16 04:17:09;;;;;;;;;;;;;;;9.13;100.00;99644.50;4977343;28;19925;-41
2023/02/16 04:19:34;;;;;;;;;;;;;;;8.66;100.00;99657.16;4979783;28;19979;-41
2023/02/16 04:22:00;;;;;;;;;;;;;;;9.40;100.00;99649.19;4980019;28;19930;-41
2023/02/16 04:24:25;;;;;;;;;;;;;;;9.53;100.00;99643.84;4979880;28;20068;-41
2023/02/16 04:26:50;;;;;;;;;;;;;;;9.07;100.00;99640.31;4979392;28;20009;-41
2023/02/16 04:29:15;;;;;;;;;;;;;;;9.23;100.00;99646.03;4979937;28;19925;-41
2023/02/16 04:31:40;;;;;;;;;;;;;;;9.46;100.00;99648.22;4979686;28;19922;-41
2023/02/16 04:34:06;;;;;;;;;;;;;;;9.28;100.00;99648.53;4979500;28;19914;-41
2023/02/16 04:36:32;;;;;;;;;;;;;;;9.40;100.00;99643.22;4979259;28;19918;-41
2023/02/16 04:38:57;;;;;;;;;;;;;;;9.40;100.00;99640.63;4978774;28;19940;-41
2023/02/16 04:41:22;;;;;;;;;;;;;;;9.57;100.00;99635.19;4979865;28;20553;-41
2023/02/16 04:43:47;;;;;;;;;;;;;;;9.69;100.00;99634.97;4979944;28;20387;-41
2023/02/16 04:46:12;;;;;;;;;;;;;;;9.44;100.00;99629.41;4978465;28;19936;-41
2023/02/16 04:48:38;;;;;;;;;;;;;;;9.69;100.00;99642.69;4979700;28;19925;-41
2023/02/16 04:51:03;;;;;;;;;;;;;;;9.60;100.00;99636.00;4977891;28;20013;-41
2023/02/16 04:53:28;;;;;;;;;;;;;;;9.98;100.00;99631.84;4979791;28;20032;-41
2023/02/16 04:55:54;;;;;;;;;;;;;;;9.97;100.00;99635.31;4979060;28;20363;-41
2023/02/16 04:58:19;;;;;;;;;;;;;;;9.98;100.00;99631.00;4979668;28;19960;-41
2023/02/16 05:00:44;;;;;;;;;;;;;;;9.61;100.00;99632.53;4984512;28;19930;-41
2023/02/16 05:03:09;;;;;;;;;;;;;;;9.03;100.00;99633.50;4979984;28;19917;-41
2023/02/16 05:05:35;;;;;;;;;;;;;;;9.08;100.00;99639.44;4978322;28;19922;-41
2023/02/16 05:08:01;;;;;;;;;;;;;;;9.50;100.00;99625.91;4977977;28;20338;-41
2023/02/16 05:10:26;;;;;;;;;;;;;;;9.16;100.00;99639.31;5017173;28;19921;-41
2023/02/16 05:15:35;;;;;;;;;;;;;;;8.97;100.00;99637.03;4977983;28;19971;-41
2023/02/16 05:18:00;;;;;;;;;;;;;;;9.37;100.00;99631.25;4980639;28;19921;-41
2023/02/16 05:21:29;;;;;;;;;;;;;;;9.08;100.00;99647.16;4982277;28;20064;-41
2023/02/16 05:23:11;;;;;;;;;;;;;;;9.09;100.00;99643.69;4979508;28;19991;-41
2023/02/16 05:25:36;;;;;;;;;;;;;;;8.77;100.00;99642.47;4978798;28;19918;-41
2023/02/16 05:28:02;;;;;;;;;;;;;;;9.26;100.00;99640.88;4996139;28;20362;-41
2023/02/16 05:30:27;;;;;;;;;;;;;;;8.92;100.00;99638.00;5018766;28;20402;-41
2023/02/16 05:32:52;;;;;;;;;;;;;;;8.34;100.00;99640.44;4978908;28;19921;-41
2023/02/16 05:35:17;;;;;;;;;;;;;;;9.07;100.00;99640.31;4979028;28;19917;-41
2023/02/16 05:37:43;;;;;;;;;;;;;;;8.68;100.00;99636.59;4978308;28;19937;-41
2023/02/16 05:40:08;;;;;;;;;;;;;;;8.72;100.00;99651.09;4974853;28;19925;-41
2023/02/16 05:42:33;;;;;;;;;;;;;;;8.46;100.00;99654.00;4978593;28;19922;-41
2023/02/16 05:44:58;;;;;;;;;;;;;;;8.81;100.00;99638.13;4979239;28;20264;-41
2023/02/16 05:47:24;;;;;;;;;;;;;;;9.13;100.00;99629.94;4975507;28;20358;-41
2023/02/16 05:49:49;;;;;;;;;;;;;;;8.10;100.00;99643.31;4979081;28;19922;-41
2023/02/16 05:52:14;;;;;;;;;;;;;;;8.19;100.00;99663.72;4979307;28;19968;-41
2023/02/16 05:54:39;;;;;;;;;;;;;;;8.42;100.00;99658.34;4978601;28;19922;-41
2023/02/16 05:57:05;;;;;;;;;;;;;;;8.47;100.00;99655.72;4977827;28;19966;-41
2023/02/16 05:59:30;;;;;;;;;;;;;;;8.27;100.00;99656.78;4977595;28;19918;-41
2023/02/16 06:01:55;;;;;;;;;;;;;;;7.92;100.00;99658.03;5011803;28;20067;-41
2023/02/16 06:04:21;;;;;;;;;;;;;;;8.34;100.00;99658.41;4979813;28;19922;-41
2023/02/16 06:06:46;;;;;;;;;;;;;;;8.18;100.00;99659.44;4977558;28;20009;-41
2023/02/16 06:09:11;;;;;;;;;;;;;;;8.22;100.00;99661.13;4976994;28;19921;-41
2023/02/16 06:11:36;;;;;;;;;;;;;;;8.17;100.00;99671.44;4978503;28;19921;-41
2023/02/16 06:14:03;;;;;;;;;;;;;;;8.03;100.00;99672.44;4979019;28;19926;-41
2023/02/16 06:16:29;;;;;;;;;;;;;;;8.77;100.00;99668.13;4978308;28;19943;-41
2023/02/16 06:18:54;;;;;;;;;;;;;;;9.11;100.00;99647.09;4978073;28;20364;-41
2023/02/16 06:21:19;;;;;;;;;;;;;;;9.28;100.00;99633.97;5020398;28;19929;-41
2023/02/16 06:23:45;;;;;;;;;;;;;;;8.81;100.00;99643.28;4981104;28;19996;-41
2023/02/16 06:26:10;;;;;;;;;;;;;;;9.00;100.00;99643.84;4981175;28;19969;-41
2023/02/16 06:28:35;;;;;;;;;;;;;;;8.74;100.00;99646.81;4980249;28;20020;-41
2023/02/16 06:31:00;;;;;;;;;;;;;;;8.85;100.00;99644.06;4984144;28;19957;-41
2023/02/16 06:33:26;;;;;;;;;;;;;;;8.95;100.00;99631.06;4984719;28;19968;-41
2023/02/16 06:35:51;;;;;;;;;;;;;;;9.27;100.00;99626.28;4980636;28;19945;-42
2023/02/16 06:38:16;;;;;;;;;;;;;;;8.91;100.00;99623.44;4987981;28;19960;-41
2023/02/16 06:40:41;;;;;;;;;;;;;;;8.79;100.00;99635.59;4981634;28;19969;-41
2023/02/16 06:43:06;;;;;;;;;;;;;;;8.40;100.00;99646.38;4983877;28;19964;-41
2023/02/16 06:45:32;;;;;;;;;;;;;;;8.48;100.00;99652.28;4980557;28;19958;-41
2023/02/16 06:47:57;;;;;;;;;;;;;;;8.81;100.00;99650.97;4981795;28;19922;-41
2023/02/16 06:50:22;;;;;;;;;;;;;;;8.35;100.00;99654.97;4982391;28;19932;-41
2023/02/16 06:52:47;;;;;;;;;;;;;;;8.72;100.00;99664.78;4981730;28;19922;-41
2023/02/16 06:55:12;;;;;;;;;;;;;;;9.03;100.00;99658.34;4984321;28;19928;-41
2023/02/16 06:57:38;;;;;;;;;;;;;;;8.38;100.00;99657.50;4980777;28;19997;-41
2023/02/16 07:00:04;;;;;;;;;;;;;;;9.17;100.00;99649.56;4981103;28;20016;-41
2023/02/16 07:02:29;;;;;;;;;;;;;;;9.54;100.00;99628.38;4983754;28;20390;-42
2023/02/16 07:04:55;;;;;;;;;;;;;;;9.38;100.00;99632.09;4985934;28;19929;-41
2023/02/16 07:07:20;;;;;;;;;;;;;;;9.30;100.00;99631.38;4979364;28;19924;-41
2023/02/16 07:09:45;;;;;;;;;;;;;;;9.37;100.00;99622.69;4987300;28;19922;-41
2023/02/16 07:12:12;;;;;;;;;;;;;;;8.98;100.00;99635.31;4984567;28;20304;-41
2023/02/16 07:14:37;;;;;;;;;;;;;;;8.99;100.00;99632.72;4983752;28;19969;-41
2023/02/16 07:17:03;;;;;;;;;;;;;;;9.16;100.00;99654.72;5020907;28;20008;-41
2023/02/16 07:19:31;;;;;;;;;;;;;;;9.32;100.00;99655.34;4986788;28;19924;-42
2023/02/16 07:21:57;;;;;;;;;;;;;;;9.34;100.00;99646.72;4981294;28;19925;-41
2023/02/16 07:24:22;;;;;;;;;;;;;;;9.63;100.00;99641.09;4981679;28;20380;-41
2023/02/16 07:26:48;;;;;;;;;;;;;;;9.98;100.00;99638.72;4980306;28;19921;-41
2023/02/16 07:29:13;;;;;;;;;;;;;;;10.02;100.00;99645.50;4982451;28;19932;-41
2023/02/16 07:31:38;;;;;;;;;;;;;;;10.01;100.00;99631.81;4985723;28;19947;-41
2023/02/16 07:34:03;;;;;;;;;;;;;;;10.09;100.00;99634.22;4981165;28;19924;-41
2023/02/16 07:36:28;;;;;;;;;;;;;;;10.15;100.00;99626.38;4984552;28;19921;-41
2023/02/16 07:38:54;;;;;;;;;;;;;;;10.30;100.00;99626.97;4980446;28;19925;-41
2023/02/16 07:41:19;;;;;;;;;;;;;;;9.88;100.00;99622.63;4980307;28;19929;-41
2023/02/16 07:43:44;;;;;;;;;;;;;;;9.94;100.00;99639.66;4980940;28;19968;-41
2023/02/16 07:46:09;;;;;;;;;;;;;;;10.01;100.00;99634.38;4981056;28;19925;-41
2023/02/16 07:48:35;;;;;;;;;;;;;;;9.76;100.00;99622.84;4978814;28;19917;-41
2023/02/16 07:51:00;;;;;;;;;;;;;;;10.24;100.00;99622.75;4980719;28;19918;-41
2023/02/16 07:53:25;;;;;;;;;;;;;;;10.40;100.00;99619.03;4980855;28;19922;-41
2023/02/16 07:55:51;;;;;;;;;;;;;;;10.55;100.00;99622.16;4982381;28;19976;-41
2023/02/16 07:58:26;;;;;;;;;;;;;;;10.63;100.00;99625.41;4980837;28;19918;-41
2023/02/16 08:01:08;;;;;;;;;;;;;;;9.90;100.00;99638.00;4980319;28;19926;-41
2023/02/16 08:03:33;;;;;;;;;;;;;;;10.32;100.00;99636.34;5002990;28;19955;-41
2023/02/16 08:06:01;;;;;;;;;;;;;;;10.18;100.00;99620.31;4980227;28;19921;-41
2023/02/16 08:08:27;;;;;;;;;;;;;;;10.00;100.00;99622.38;4980541;28;19928;-41
2023/02/16 08:10:52;;;;;;;;;;;;;;;9.97;100.00;99608.75;4980334;28;19922;-41
2023/02/16 08:13:17;;;;;;;;;;;;;;;10.71;100.00;99618.34;4980774;28;19918;-41
2023/02/16 08:15:43;;;;;;;;;;;;;;;10.46;100.00;99610.31;4980012;28;19918;-41
2023/02/16 08:18:08;;;;;;;;;;;;;;;10.23;100.00;99615.94;4980252;28;19921;-41
2023/02/16 08:20:33;;;;;;;;;;;;;;;10.66;100.00;99613.28;4980246;28;20375;-41
2023/02/16 08:22:59;;;;;;;;;;;;;;;10.27;100.00;99620.13;4980237;28;20551;-41
2023/02/16 08:25:24;;;;;;;;;;;;;;;10.64;100.00;99611.66;4980100;28;20418;-41
2023/02/16 08:27:49;;;;;;;;;;;;;;;10.50;100.00;99614.53;4980260;28;21137;-41
2023/02/16 08:30:17;;;;;;;;;;;;;;;10.78;100.00;99609.59;4979330;28;19918;-41
2023/02/16 08:32:42;;;;;;;;;;;;;;;10.62;100.00;99608.25;4979631;28;20112;-41
2023/02/16 08:35:08;;;;;;;;;;;;;;;10.92;100.00;99614.41;4980680;28;19961;-41
2023/02/16 08:37:34;;;;;;;;;;;;;;;10.71;100.00;99597.75;4979769;28;19975;-41
2023/02/16 08:39:59;;;;;;;;;;;;;;;10.71;100.00;99610.63;4978732;28;19921;-41
2023/02/16 08:42:25;;;;;;;;;;;;;;;11.16;100.00;99604.41;5023878;28;19917;-41
2023/02/16 08:44:50;;;;;;;;;;;;;;;10.66;100.00;99594.44;4980163;28;20469;-41
2023/02/16 08:47:18;;;;;;;;;;;;;;;10.78;100.00;99586.41;4977688;28;19922;-41
2023/02/16 08:49:44;;;;;;;;;;;;;;;10.01;100.00;99579.47;4979910;28;19928;-41
2023/02/16 08:52:11;;;;;;;;;;;;;;;10.56;100.00;99582.63;4980021;28;20800;-41
2023/02/16 08:54:36;;;;;;;;;;;;;;;10.92;100.00;99569.78;4979816;28;19917;-41
2023/02/16 08:57:01;;;;;;;;;;;;;;;11.08;100.00;99560.78;5015504;28;20335;-41
2023/02/16 08:59:27;;;;;;;;;;;;;;;11.40;100.00;99566.84;4986389;28;20279;-41
2023/02/16 09:01:52;;;;;;;;;;;;;;;11.92;100.00;99544.81;4987661;28;19925;-41
2023/02/16 09:04:18;;;;;;;;;;;;;;;11.78;100.00;99541.75;4979767;28;19918;-41
2023/02/16 09:06:44;;;;;;;;;;;;;;;11.57;100.00;99562.09;4979421;28;20466;-41
2023/02/16 09:09:09;;;;;;;;;;;;;;;11.42;100.00;99542.69;4979505;28;19952;-41
2023/02/16 09:11:34;;;;;;;;;;;;;;;11.74;100.00;99553.88;4979865;28;19917;-41
2023/02/16 09:14:00;;;;;;;;;;;;;;;11.65;100.00;99557.53;4978684;28;20155;-41
2023/02/16 09:16:28;;;;;;;;;;;;;;;11.45;100.00;99580.47;4979059;28;19953;-41
2023/02/16 09:18:53;;;;;;;;;;;;;;;11.85;100.00;99569.06;4979965;28;19926;-41
2023/02/16 09:21:20;;;;;;;;;;;;;;;11.26;100.00;99551.72;4980110;28;20022;-41
2023/02/16 09:23:47;;;;;;;;;;;;;;;11.60;100.00;99566.31;4979358;28;20940;-41
2023/02/16 09:26:12;;;;;;;;;;;;;;;10.94;100.00;99573.16;4979277;28;19988;-41
2023/02/16 09:28:38;;;;;;;;;;;;;;;11.54;100.00;99576.78;4977274;28;19918;-41
2023/02/16 09:31:12;;;;;;;;;;;;;;;11.69;100.00;99564.31;4979608;28;19921;-41
2023/02/16 09:33:38;;;;;;;;;;;;;;;11.39;100.00;99585.78;4981492;28;19926;-41
2023/02/16 09:36:05;;;;;;;;;;;;;;;11.96;100.00;99566.22;4977845;28;20030;-42
2023/02/16 09:38:31;;;;;;;;;;;;;;;11.61;100.00;99568.00;4979935;28;19922;-41
2023/02/16 09:40:56;;;;;;;;;;;;;;;11.78;100.00;99562.38;4986499;28;19936;-41
2023/02/16 09:43:32;;;;;;;;;;;;;;;11.80;100.00;99560.63;5017481;28;20429;-41
2023/02/16 09:45:57;;;;;;;;;;;;;;;12.12;100.00;99552.81;4991279;28;19925;-41
2023/02/16 09:48:22;;;;;;;;;;;;;;;12.44;100.00;99552.75;5016902;28;19925;-41
2023/02/16 09:50:48;;;;;;;;;;;;;;;12.63;100.00;99553.84;4980646;28;20000;-41
2023/02/16 09:53:24;;;;;;;;;;;;;;;12.14;100.00;99551.03;5014999;28;19921;-41
2023/02/16 09:55:58;;;;;;;;;;;;;;;12.14;100.00;99555.34;4981289;28;20426;-41
2023/02/16 09:58:25;;;;;;;;;;;;;;;12.48;100.00;99565.53;4985389;28;20812;-41
2023/02/16 10:00:52;;;;;;;;;;;;;;;12.34;100.00;99544.44;5019382;28;19964;-41
2023/02/16 10:03:22;;;;;;;;;;;;;;;12.41;100.00;99553.69;5022925;28;19928;-41
2023/02/16 10:05:50;;;;;;;;;;;;;;;12.73;100.00;99554.41;4982198;28;20403;-41
2023/02/16 10:08:21;;;;;;;;;;;;;;;12.61;100.00;99544.44;4981119;28;20042;-42
2023/02/16 10:10:48;;;;;;;;;;;;;;;12.97;100.00;99537.25;4985108;28;20725;-41
2023/02/16 10:13:35;;;;;;;;;;;;;;;13.37;100.00;99531.59;5000007;28;19952;-41
2023/02/16 10:16:01;;;;;;;;;;;;;;;13.28;100.00;99531.94;5018299;28;19928;-41
2023/02/16 10:18:28;;;;;;;;;;;;;;;13.35;100.00;99532.56;4981438;28;19922;-41
2023/02/16 10:20:55;;;;;;;;;;;;;;;13.52;100.00;99534.53;5013590;28;19933;-41
2023/02/16 10:23:39;;;;;;;;;;;;;;;13.53;100.00;99531.91;5025919;28;19927;-49
2023/02/16 10:26:23;;;;;;;;;;;;;;;13.63;100.00;99532.41;4981047;28;19925;-51
2023/02/16 10:28:49;;;;;;;;;;;;;;;14.06;100.00;99541.19;5023861;28;19928;-50
2023/02/16 10:31:14;;;;;;;;;;;;;;;14.65;100.00;99532.03;4984248;28;19918;-49
2023/02/16 10:33:45;;;;;;;;;;;;;;;14.82;100.00;99526.16;4984911;28;19922;-51
2023/02/16 10:36:34;;;;;;;;;;;;;;;14.29;100.00;99519.59;4981064;28;20016;-50
2023/02/16 10:39:06;;;;;;;;;;;;;;;14.49;100.00;99526.59;4984330;28;20019;-50
2023/02/16 10:41:33;;;;;;;;;;;;;;;14.63;100.00;99526.06;5013996;28;20394;-51
2023/02/16 10:44:09;;;;;;;;;;;;;;;14.48;100.00;99526.63;4982170;28;20446;-49
2023/02/16 10:46:35;;;;;;;;;;;;;;;14.37;100.00;99540.88;5013107;28;19979;-50
2023/02/16 10:49:00;;;;;;;;;;;;;;;14.13;100.00;99536.63;5012521;28;19928;-50
2023/02/16 10:51:27;;;;;;;;;;;;;;;14.17;100.00;99554.59;5015228;28;19918;-49
2023/02/16 10:54:13;;;;;;;;;;;;;;;13.57;100.00;99558.50;5024059;28;19972;-50
2023/02/16 10:56:44;;;;;;;;;;;;;;;13.60;100.00;99573.94;4979408;28;19922;-48
2023/02/16 10:59:14;;;;;;;;;;;;;;;13.97;100.00;99564.84;4982074;28;19917;-50
2023/02/16 11:01:43;;;;;;;;;;;;;;;14.31;100.00;99556.66;4981690;28;19932;-49
2023/02/16 11:04:09;;;;;;;;;;;;;;;13.95;100.00;99564.06;5001174;28;19931;-50
2023/02/16 11:06:34;;;;;;;;;;;;;;;13.85;100.00;99553.19;5005376;28;19961;-52
2023/02/16 11:09:00;;;;;;;;;;;;;;;14.05;100.00;99552.47;5009123;28;19972;-50
2023/02/16 11:11:26;;;;;;;;;;;;;;;13.63;100.00;99563.47;5019899;28;19945;-51
2023/02/16 11:14:00;;;;;;;;;;;;;;;13.75;100.00;99560.47;4981323;28;19922;-52
2023/02/16 11:16:25;;;;;;;;;;;;;;;14.48;100.00;99548.22;5019235;28;19918;-51
2023/02/16 11:18:56;;;;;;;;;;;;;;;14.66;100.00;99556.22;4981101;28;19928;-52
2023/02/16 11:21:21;;;;;;;;;;;;;;;14.29;100.00;99558.44;4981439;28;20080;-49
2023/02/16 11:23:57;;;;;;;;;;;;;;;14.48;100.00;99563.75;5019701;28;20016;-49
2023/02/16 11:26:23;;;;;;;;;;;;;;;14.68;100.00;99554.41;4979244;28;20291;-50
2023/02/16 11:28:48;;;;;;;;;;;;;;;13.96;100.00;99558.84;4980903;28;20814;-53
2023/02/16 11:31:16;;;;;;;;;;;;;;;13.59;100.00;99577.41;5014091;28;19952;-51
2023/02/16 11:33:42;;;;;;;;;;;;;;;12.87;100.00;99595.34;5019710;28;19922;-50
2023/02/16 11:36:17;;;;;;;;;;;;;;;12.70;100.00;99596.72;5016804;28;20372;-49
2023/02/16 11:38:42;;;;;;;;;;;;;;;13.20;100.00;99588.19;5021431;28;21074;-52
2023/02/16 11:41:08;;;;;;;;;;;;;;;13.11;100.00;99585.91;5008812;28;19936;-51
2023/02/16 11:43:36;;;;;;;;;;;;;;;12.96;100.00;99601.03;5014166;28;19925;-48
2023/02/16 11:46:20;;;;;;;;;;;;;;;13.02;100.00;99596.56;4980315;28;19921;-50
2023/02/16 11:48:45;;;;;;;;;;;;;;;13.08;100.00;99601.53;5014258;28;20283;-52
2023/02/16 11:51:11;;;;;;;;;;;;;;;12.81;100.00;99592.94;4981380;28;19926;-51
2023/02/16 11:53:39;;;;;;;;;;;;;;;13.84;100.00;99581.72;5024753;28;20327;-51
2023/02/16 11:56:26;;;;;;;;;;;;;;;14.01;100.00;99564.69;4979537;28;19933;-50
2023/02/16 11:59:06;;;;;;;;;;;;;;;13.09;100.00;99595.47;4981211;28;19937;-50
2023/02/16 12:01:37;;;;;;;;;;;;;;;13.17;100.00;99593.47;4980723;28;19925;-52
2023/02/16 12:04:14;;;;;;;;;;;;;;;13.96;100.00;99581.31;4979992;28;20346;-49
2023/02/16 12:06:46;;;;;;;;;;;;;;;13.70;100.00;99585.66;4979885;28;20405;-50
2023/02/16 12:09:23;;;;;;;;;;;;;;;13.51;100.00;99580.28;4980143;28;19922;-50
2023/02/16 12:11:56;;;;;;;;;;;;;;;13.79;100.00;99585.31;4980178;28;20012;-50
2023/02/16 12:14:42;;;;;;;;;;;;;;;14.00;100.00;99577.66;5019022;28;19972;-50
2023/02/16 12:17:10;;;;;;;;;;;;;;;14.61;100.00;99557.22;4978047;28;20047;-50
2023/02/16 12:19:40;;;;;;;;;;;;;;;14.35;100.00;99560.81;4981341;28;19918;-51
2023/02/16 12:22:24;;;;;;;;;;;;;;;14.17;100.00;99567.53;5017652;28;19941;-51
2023/02/16 12:24:49;;;;;;;;;;;;;;;14.99;100.00;99554.00;4979673;28;19949;-52
2023/02/16 12:27:15;;;;;;;;;;;;;;;14.72;100.00;99571.53;5001706;28;19926;-49
2023/02/16 12:29:47;;;;;;;;;;;;;;;15.12;100.00;99567.28;4979237;28;19947;-50
2023/02/16 12:32:18;;;;;;;;;;;;;;;15.56;100.00;99536.88;4979390;28;19926;-50
2023/02/16 12:34:55;;;;;;;;;;;;;;;15.73;100.00;99532.72;4979529;28;19921;-52
2023/02/16 12:37:40;;;;;;;;;;;;;;;15.70;100.00;99520.69;4978564;28;19929;-51
2023/02/16 12:40:05;;;;;;;;;;;;;;;14.94;100.00;99555.94;4978779;28;19921;-49
2023/02/16 12:42:33;;;;;;;;;;;;;;;14.88;100.00;99553.59;4984821;28;21258;-50
2023/02/16 12:45:00;;;;;;;;;;;;;;;14.88;100.00;99545.81;4978611;28;19917;-49
2023/02/16 12:47:31;;;;;;;;;;;;;;;14.55;100.00;99560.09;4976963;28;20463;-50
2023/02/16 12:50:19;;;;;;;;;;;;;;;14.99;100.00;99548.81;4979746;28;19972;-49
2023/02/16 12:52:46;;;;;;;;;;;;;;;14.79;100.00;99541.84;4983705;28;19972;-49
2023/02/16 12:55:14;;;;;;;;;;;;;;;14.59;100.00;99548.66;4979650;28;19968;-49
2023/02/16 12:57:40;;;;;;;;;;;;;;;15.36;100.00;99529.94;4980844;28;19918;-50
2023/02/16 13:00:25;;;;;;;;;;;;;;;15.16;100.00;99519.56;4996929;28;19926;-49
2023/02/16 13:03:27;;;;;;;;;;;;;;;14.50;100.00;99561.97;5010909;28;20042;-50
2023/02/16 13:05:59;;;;;;;;;;;;;;;13.29;100.00;99575.00;4993541;28;19921;-50
2023/02/16 13:08:37;;;;;;;;;;;;;;;13.81;100.00;99585.28;4990423;28;20522;-51
2023/02/16 13:11:22;;;;;;;;;;;;;;;14.50;100.00;99564.56;4978829;28;19926;-51
2023/02/16 13:13:48;;;;;;;;;;;;;;;14.82;100.00;99562.47;5018844;28;19931;-52
2023/02/16 13:16:18;;;;;;;;;;;;;;;14.79;100.00;99542.69;4978312;28;19925;-48
2023/02/16 13:18:44;;;;;;;;;;;;;;;14.01;100.00;99563.84;4979231;28;19961;-49
2023/02/16 13:21:10;;;;;;;;;;;;;;;14.38;100.00;99567.63;5012240;28;19936;-51
2023/02/16 13:23:41;;;;;;;;;;;;;;;14.99;100.00;99534.09;5017122;28;20509;-51
2023/02/16 13:26:16;;;;;;;;;;;;;;;15.29;100.00;99522.50;5013531;28;20008;-52